sensor_id;sensor_type;location;lat;lon;timestamp;P1;durP1;ratioP1;P2;durP2;ratioP2
75898;SDS011;64576;50.460;4.866;2023-04-03T00:01:14;24.23;;;13.45;;
75898;SDS011;64576;50.460;4.866;2023-04-03T00:03:41;28.67;;;17.02;;
75898;SDS011;64576;50.460;4.866;2023-04-03T00:06:06;26.08;;;16.45;;
75898;SDS011;64576;50.460;4.866;2023-04-03T00:08:33;27.98;;;14.23;;
75898;SDS011;64576;50.460;4.866;2023-04-03T00:11:00;32.53;;;14.63;;
75898;SDS011;64576;50.460;4.866;2023-04-03T00:13:25;22.65;;;12.73;;
75898;SDS011;64576;50.460;4.866;2023-04-03T00:15:51;29.50;;;14.27;;
75898;SDS011;64576;50.460;4.866;2023-04-03T00:18:17;25.08;;;14.30;;
75898;SDS011;64576;50.460;4.866;2023-04-03T00:20:42;26.73;;;11.90;;
75898;SDS011;64576;50.460;4.866;2023-04-03T00:23:08;25.50;;;14.18;;
75898;SDS011;64576;50.460;4.866;2023-04-03T00:25:33;24.95;;;12.55;;
75898;SDS011;64576;50.460;4.866;2023-04-03T00:27:59;24.63;;;12.35;;
75898;SDS011;64576;50.460;4.866;2023-04-03T00:30:24;23.30;;;12.43;;
75898;SDS011;64576;50.460;4.866;2023-04-03T00:32:51;23.00;;;12.60;;
75898;SDS011;64576;50.460;4.866;2023-04-03T00:35:17;24.83;;;12.65;;
75898;SDS011;64576;50.460;4.866;2023-04-03T00:37:44;31.02;;;13.48;;
75898;SDS011;64576;50.460;4.866;2023-04-03T00:40:10;34.47;;;17.10;;
75898;SDS011;64576;50.460;4.866;2023-04-03T00:42:37;30.77;;;16.77;;
75898;SDS011;64576;50.460;4.866;2023-04-03T00:47:29;26.77;;;15.02;;
75898;SDS011;64576;50.460;4.866;2023-04-03T00:49:55;31.77;;;17.05;;
75898;SDS011;64576;50.460;4.866;2023-04-03T00:52:23;34.95;;;15.90;;
75898;SDS011;64576;50.460;4.866;2023-04-03T00:54:54;33.55;;;17.90;;
75898;SDS011;64576;50.460;4.866;2023-04-03T00:57:22;38.55;;;20.67;;
75898;SDS011;64576;50.460;4.866;2023-04-03T00:59:52;40.65;;;20.55;;
75898;SDS011;64576;50.460;4.866;2023-04-03T01:02:22;34.38;;;17.15;;
75898;SDS011;64576;50.460;4.866;2023-04-03T01:04:47;37.45;;;17.00;;
75898;SDS011;64576;50.460;4.866;2023-04-03T01:07:17;36.20;;;18.90;;
75898;SDS011;64576;50.460;4.866;2023-04-03T01:09:47;34.88;;;17.88;;
75898;SDS011;64576;50.460;4.866;2023-04-03T01:14:41;35.05;;;18.25;;
75898;SDS011;64576;50.460;4.866;2023-04-03T01:17:51;37.63;;;19.85;;
75898;SDS011;64576;50.460;4.866;2023-04-03T01:25:39;30.92;;;17.23;;
75898;SDS011;64576;50.460;4.866;2023-04-03T01:28:05;29.10;;;17.35;;
75898;SDS011;64576;50.460;4.866;2023-04-03T01:30:36;36.17;;;18.15;;
75898;SDS011;64576;50.460;4.866;2023-04-03T01:33:08;28.55;;;15.13;;
75898;SDS011;64576;50.460;4.866;2023-04-03T01:35:33;34.85;;;16.88;;
75898;SDS011;64576;50.460;4.866;2023-04-03T01:37:58;30.95;;;15.18;;
75898;SDS011;64576;50.460;4.866;2023-04-03T01:40:24;32.97;;;16.15;;
75898;SDS011;64576;50.460;4.866;2023-04-03T01:42:50;39.05;;;15.20;;
75898;SDS011;64576;50.460;4.866;2023-04-03T01:45:15;40.92;;;20.23;;
75898;SDS011;64576;50.460;4.866;2023-04-03T01:47:41;32.53;;;17.95;;
75898;SDS011;64576;50.460;4.866;2023-04-03T01:50:06;37.92;;;18.13;;
75898;SDS011;64576;50.460;4.866;2023-04-03T01:52:32;36.90;;;16.15;;
75898;SDS011;64576;50.460;4.866;2023-04-03T01:54:57;33.67;;;15.23;;
75898;SDS011;64576;50.460;4.866;2023-04-03T01:57:23;35.53;;;16.63;;
75898;SDS011;64576;50.460;4.866;2023-04-03T01:59:48;36.08;;;16.00;;
75898;SDS011;64576;50.460;4.866;2023-04-03T02:02:13;37.05;;;19.02;;
75898;SDS011;64576;50.460;4.866;2023-04-03T02:04:39;40.97;;;19.15;;
75898;SDS011;64576;50.460;4.866;2023-04-03T02:07:05;40.85;;;18.63;;
75898;SDS011;64576;50.460;4.866;2023-04-03T02:09:31;36.08;;;17.77;;
75898;SDS011;64576;50.460;4.866;2023-04-03T02:11:56;44.05;;;22.65;;
75898;SDS011;64576;50.460;4.866;2023-04-03T02:14:21;41.72;;;18.45;;
75898;SDS011;64576;50.460;4.866;2023-04-03T02:16:48;43.05;;;18.00;;
75898;SDS011;64576;50.460;4.866;2023-04-03T02:19:14;40.10;;;21.40;;
75898;SDS011;64576;50.460;4.866;2023-04-03T02:21:39;48.05;;;21.38;;
75898;SDS011;64576;50.460;4.866;2023-04-03T02:24:05;43.20;;;21.15;;
75898;SDS011;64576;50.460;4.866;2023-04-03T02:26:31;38.75;;;17.70;;
75898;SDS011;64576;50.460;4.866;2023-04-03T02:28:56;44.28;;;21.05;;
75898;SDS011;64576;50.460;4.866;2023-04-03T02:31:21;39.38;;;18.13;;
75898;SDS011;64576;50.460;4.866;2023-04-03T02:33:47;47.60;;;21.33;;
75898;SDS011;64576;50.460;4.866;2023-04-03T02:36:12;43.30;;;20.10;;
75898;SDS011;64576;50.460;4.866;2023-04-03T02:38:37;42.90;;;21.30;;
75898;SDS011;64576;50.460;4.866;2023-04-03T02:41:04;42.28;;;19.10;;
75898;SDS011;64576;50.460;4.866;2023-04-03T02:43:34;54.47;;;22.23;;
75898;SDS011;64576;50.460;4.866;2023-04-03T02:46:00;56.53;;;23.25;;
75898;SDS011;64576;50.460;4.866;2023-04-03T02:48:25;54.08;;;23.52;;
75898;SDS011;64576;50.460;4.866;2023-04-03T02:50:51;49.50;;;24.35;;
75898;SDS011;64576;50.460;4.866;2023-04-03T02:53:17;44.00;;;19.83;;
75898;SDS011;64576;50.460;4.866;2023-04-03T02:55:43;48.97;;;20.63;;
75898;SDS011;64576;50.460;4.866;2023-04-03T02:58:09;36.75;;;18.75;;
75898;SDS011;64576;50.460;4.866;2023-04-03T03:00:34;38.10;;;17.45;;
75898;SDS011;64576;50.460;4.866;2023-04-03T03:03:00;34.83;;;17.60;;
75898;SDS011;64576;50.460;4.866;2023-04-03T03:05:26;31.20;;;13.40;;
75898;SDS011;64576;50.460;4.866;2023-04-03T03:07:52;36.97;;;16.75;;
75898;SDS011;64576;50.460;4.866;2023-04-03T03:10:17;35.38;;;17.70;;
75898;SDS011;64576;50.460;4.866;2023-04-03T03:12:43;34.53;;;16.17;;
75898;SDS011;64576;50.460;4.866;2023-04-03T03:15:09;41.58;;;17.88;;
75898;SDS011;64576;50.460;4.866;2023-04-03T03:17:35;34.88;;;16.45;;
75898;SDS011;64576;50.460;4.866;2023-04-03T03:20:01;38.40;;;20.42;;
75898;SDS011;64576;50.460;4.866;2023-04-03T03:22:27;37.85;;;17.48;;
75898;SDS011;64576;50.460;4.866;2023-04-03T03:24:53;32.05;;;16.77;;
75898;SDS011;64576;50.460;4.866;2023-04-03T03:27:18;35.22;;;18.27;;
75898;SDS011;64576;50.460;4.866;2023-04-03T03:29:44;19.63;;;11.43;;
75898;SDS011;64576;50.460;4.866;2023-04-03T03:32:09;28.48;;;13.55;;
75898;SDS011;64576;50.460;4.866;2023-04-03T03:34:35;26.27;;;14.85;;
75898;SDS011;64576;50.460;4.866;2023-04-03T03:37:00;37.08;;;15.40;;
75898;SDS011;64576;50.460;4.866;2023-04-03T03:39:25;26.33;;;15.10;;
75898;SDS011;64576;50.460;4.866;2023-04-03T03:41:51;27.08;;;13.35;;
75898;SDS011;64576;50.460;4.866;2023-04-03T03:44:18;27.75;;;12.77;;
75898;SDS011;64576;50.460;4.866;2023-04-03T03:46:44;24.67;;;12.80;;
75898;SDS011;64576;50.460;4.866;2023-04-03T03:49:10;28.10;;;14.15;;
75898;SDS011;64576;50.460;4.866;2023-04-03T03:51:36;23.80;;;13.05;;
75898;SDS011;64576;50.460;4.866;2023-04-03T03:54:02;25.65;;;13.80;;
75898;SDS011;64576;50.460;4.866;2023-04-03T03:56:28;29.40;;;13.57;;
75898;SDS011;64576;50.460;4.866;2023-04-03T03:58:53;26.60;;;12.52;;
75898;SDS011;64576;50.460;4.866;2023-04-03T04:01:21;29.38;;;14.25;;
75898;SDS011;64576;50.460;4.866;2023-04-03T04:03:47;26.52;;;10.70;;
75898;SDS011;64576;50.460;4.866;2023-04-03T04:06:12;22.40;;;12.98;;
75898;SDS011;64576;50.460;4.866;2023-04-03T04:08:38;27.35;;;12.70;;
75898;SDS011;64576;50.460;4.866;2023-04-03T04:11:05;32.55;;;14.00;;
75898;SDS011;64576;50.460;4.866;2023-04-03T04:13:30;31.67;;;16.52;;
75898;SDS011;64576;50.460;4.866;2023-04-03T04:15:55;29.10;;;14.63;;
75898;SDS011;64576;50.460;4.866;2023-04-03T04:18:21;27.23;;;12.80;;
75898;SDS011;64576;50.460;4.866;2023-04-03T04:20:47;27.35;;;13.00;;
75898;SDS011;64576;50.460;4.866;2023-04-03T04:23:13;30.65;;;14.73;;
75898;SDS011;64576;50.460;4.866;2023-04-03T04:25:39;32.08;;;14.02;;
75898;SDS011;64576;50.460;4.866;2023-04-03T04:28:05;32.63;;;15.48;;
75898;SDS011;64576;50.460;4.866;2023-04-03T04:30:31;31.55;;;14.70;;
75898;SDS011;64576;50.460;4.866;2023-04-03T04:32:56;32.78;;;14.40;;
75898;SDS011;64576;50.460;4.866;2023-04-03T04:35:22;32.33;;;15.63;;
75898;SDS011;64576;50.460;4.866;2023-04-03T04:37:47;34.95;;;15.05;;
75898;SDS011;64576;50.460;4.866;2023-04-03T04:40:13;34.38;;;17.20;;
75898;SDS011;64576;50.460;4.866;2023-04-03T04:42:38;27.48;;;12.57;;
75898;SDS011;64576;50.460;4.866;2023-04-03T04:45:04;38.08;;;19.98;;
75898;SDS011;64576;50.460;4.866;2023-04-03T04:47:30;33.95;;;16.08;;
75898;SDS011;64576;50.460;4.866;2023-04-03T04:49:55;24.98;;;13.60;;
75898;SDS011;64576;50.460;4.866;2023-04-03T04:52:20;35.78;;;16.02;;
75898;SDS011;64576;50.460;4.866;2023-04-03T04:54:46;30.73;;;14.82;;
75898;SDS011;64576;50.460;4.866;2023-04-03T04:57:11;28.13;;;14.85;;
75898;SDS011;64576;50.460;4.866;2023-04-03T04:59:36;35.15;;;16.67;;
75898;SDS011;64576;50.460;4.866;2023-04-03T05:02:02;36.50;;;17.35;;
75898;SDS011;64576;50.460;4.866;2023-04-03T05:04:27;35.03;;;17.50;;
75898;SDS011;64576;50.460;4.866;2023-04-03T05:06:53;43.63;;;14.18;;
75898;SDS011;64576;50.460;4.866;2023-04-03T05:09:18;31.45;;;16.38;;
75898;SDS011;64576;50.460;4.866;2023-04-03T05:11:45;41.03;;;17.92;;
75898;SDS011;64576;50.460;4.866;2023-04-03T05:14:11;45.05;;;20.55;;
75898;SDS011;64576;50.460;4.866;2023-04-03T05:16:36;31.10;;;16.42;;
75898;SDS011;64576;50.460;4.866;2023-04-03T05:19:02;36.42;;;18.65;;
75898;SDS011;64576;50.460;4.866;2023-04-03T05:21:28;39.80;;;18.15;;
75898;SDS011;64576;50.460;4.866;2023-04-03T05:23:57;40.20;;;19.88;;
75898;SDS011;64576;50.460;4.866;2023-04-03T05:26:27;35.88;;;17.67;;
75898;SDS011;64576;50.460;4.866;2023-04-03T05:28:54;30.73;;;14.57;;
75898;SDS011;64576;50.460;4.866;2023-04-03T05:31:19;31.85;;;17.25;;
75898;SDS011;64576;50.460;4.866;2023-04-03T05:33:45;34.47;;;16.27;;
75898;SDS011;64576;50.460;4.866;2023-04-03T05:36:11;27.83;;;14.13;;
75898;SDS011;64576;50.460;4.866;2023-04-03T05:38:37;28.55;;;14.85;;
75898;SDS011;64576;50.460;4.866;2023-04-03T05:41:03;23.58;;;13.65;;
75898;SDS011;64576;50.460;4.866;2023-04-03T05:43:28;22.77;;;13.07;;
75898;SDS011;64576;50.460;4.866;2023-04-03T05:45:54;27.92;;;13.63;;
75898;SDS011;64576;50.460;4.866;2023-04-03T05:48:19;22.20;;;12.75;;
75898;SDS011;64576;50.460;4.866;2023-04-03T05:50:45;26.10;;;14.55;;
75898;SDS011;64576;50.460;4.866;2023-04-03T05:53:18;21.20;;;10.93;;
75898;SDS011;64576;50.460;4.866;2023-04-03T05:55:48;28.40;;;12.90;;
75898;SDS011;64576;50.460;4.866;2023-04-03T05:58:14;21.27;;;12.00;;
75898;SDS011;64576;50.460;4.866;2023-04-03T06:00:39;25.30;;;13.05;;
75898;SDS011;64576;50.460;4.866;2023-04-03T06:03:05;23.40;;;12.23;;
75898;SDS011;64576;50.460;4.866;2023-04-03T06:05:31;24.30;;;13.15;;
75898;SDS011;64576;50.460;4.866;2023-04-03T06:07:56;21.77;;;12.00;;
75898;SDS011;64576;50.460;4.866;2023-04-03T06:10:22;23.58;;;13.02;;
75898;SDS011;64576;50.460;4.866;2023-04-03T06:12:48;21.58;;;11.73;;
75898;SDS011;64576;50.460;4.866;2023-04-03T06:15:13;23.55;;;14.40;;
75898;SDS011;64576;50.460;4.866;2023-04-03T06:17:40;18.17;;;11.27;;
75898;SDS011;64576;50.460;4.866;2023-04-03T06:20:05;24.05;;;12.82;;
75898;SDS011;64576;50.460;4.866;2023-04-03T06:22:32;21.95;;;12.35;;
75898;SDS011;64576;50.460;4.866;2023-04-03T06:24:58;19.75;;;11.73;;
75898;SDS011;64576;50.460;4.866;2023-04-03T06:27:23;26.38;;;13.48;;
75898;SDS011;64576;50.460;4.866;2023-04-03T06:29:48;19.05;;;13.93;;
75898;SDS011;64576;50.460;4.866;2023-04-03T06:32:14;21.88;;;13.00;;
75898;SDS011;64576;50.460;4.866;2023-04-03T06:34:41;25.00;;;14.38;;
75898;SDS011;64576;50.460;4.866;2023-04-03T06:37:10;27.88;;;14.50;;
75898;SDS011;64576;50.460;4.866;2023-04-03T06:42:04;24.55;;;13.80;;
75898;SDS011;64576;50.460;4.866;2023-04-03T06:44:30;19.80;;;12.23;;
75898;SDS011;64576;50.460;4.866;2023-04-03T06:46:56;20.42;;;11.88;;
75898;SDS011;64576;50.460;4.866;2023-04-03T06:49:22;24.20;;;13.20;;
75898;SDS011;64576;50.460;4.866;2023-04-03T06:51:47;20.92;;;13.05;;
75898;SDS011;64576;50.460;4.866;2023-04-03T06:54:13;20.80;;;13.50;;
75898;SDS011;64576;50.460;4.866;2023-04-03T06:56:39;23.00;;;13.48;;
75898;SDS011;64576;50.460;4.866;2023-04-03T06:59:05;25.05;;;13.32;;
75898;SDS011;64576;50.460;4.866;2023-04-03T07:01:30;26.65;;;14.80;;
75898;SDS011;64576;50.460;4.866;2023-04-03T07:03:56;24.25;;;15.00;;
75898;SDS011;64576;50.460;4.866;2023-04-03T07:06:21;19.98;;;14.95;;
75898;SDS011;64576;50.460;4.866;2023-04-03T07:08:47;21.02;;;13.52;;
75898;SDS011;64576;50.460;4.866;2023-04-03T07:11:14;22.88;;;14.07;;
75898;SDS011;64576;50.460;4.866;2023-04-03T07:13:39;25.42;;;14.63;;
75898;SDS011;64576;50.460;4.866;2023-04-03T07:16:06;34.75;;;15.70;;
75898;SDS011;64576;50.460;4.866;2023-04-03T07:18:32;26.17;;;16.67;;
75898;SDS011;64576;50.460;4.866;2023-04-03T07:20:58;17.63;;;13.48;;
75898;SDS011;64576;50.460;4.866;2023-04-03T07:23:23;20.40;;;12.77;;
75898;SDS011;64576;50.460;4.866;2023-04-03T07:25:50;17.50;;;12.63;;
75898;SDS011;64576;50.460;4.866;2023-04-03T07:28:16;22.95;;;14.00;;
75898;SDS011;64576;50.460;4.866;2023-04-03T07:30:43;26.15;;;13.73;;
75898;SDS011;64576;50.460;4.866;2023-04-03T07:33:14;21.92;;;12.38;;
75898;SDS011;64576;50.460;4.866;2023-04-03T07:35:42;20.63;;;13.95;;
75898;SDS011;64576;50.460;4.866;2023-04-03T07:38:08;19.10;;;13.77;;
75898;SDS011;64576;50.460;4.866;2023-04-03T07:40:34;18.38;;;12.30;;
75898;SDS011;64576;50.460;4.866;2023-04-03T07:43:00;19.08;;;12.60;;
75898;SDS011;64576;50.460;4.866;2023-04-03T07:45:25;19.17;;;12.18;;
75898;SDS011;64576;50.460;4.866;2023-04-03T07:47:51;16.35;;;10.98;;
75898;SDS011;64576;50.460;4.866;2023-04-03T07:50:17;18.88;;;11.65;;
75898;SDS011;64576;50.460;4.866;2023-04-03T07:52:43;20.08;;;11.82;;
75898;SDS011;64576;50.460;4.866;2023-04-03T07:55:08;16.67;;;12.85;;
75898;SDS011;64576;50.460;4.866;2023-04-03T07:57:34;14.77;;;9.77;;
75898;SDS011;64576;50.460;4.866;2023-04-03T08:00:00;13.25;;;8.70;;
75898;SDS011;64576;50.460;4.866;2023-04-03T08:02:25;17.27;;;12.13;;
75898;SDS011;64576;50.460;4.866;2023-04-03T08:04:51;18.27;;;10.13;;
75898;SDS011;64576;50.460;4.866;2023-04-03T08:07:17;15.57;;;9.23;;
75898;SDS011;64576;50.460;4.866;2023-04-03T08:09:42;13.45;;;8.95;;
75898;SDS011;64576;50.460;4.866;2023-04-03T08:12:09;11.90;;;7.90;;
75898;SDS011;64576;50.460;4.866;2023-04-03T08:14:36;12.85;;;7.65;;
75898;SDS011;64576;50.460;4.866;2023-04-03T08:17:02;14.60;;;9.50;;
75898;SDS011;64576;50.460;4.866;2023-04-03T08:19:29;14.68;;;8.95;;
75898;SDS011;64576;50.460;4.866;2023-04-03T08:21:55;18.48;;;8.82;;
75898;SDS011;64576;50.460;4.866;2023-04-03T08:24:21;11.13;;;6.85;;
75898;SDS011;64576;50.460;4.866;2023-04-03T08:26:47;9.68;;;6.50;;
75898;SDS011;64576;50.460;4.866;2023-04-03T08:29:12;9.68;;;6.65;;
75898;SDS011;64576;50.460;4.866;2023-04-03T08:31:38;12.00;;;6.43;;
75898;SDS011;64576;50.460;4.866;2023-04-03T08:34:04;8.73;;;6.15;;
75898;SDS011;64576;50.460;4.866;2023-04-03T08:36:30;11.88;;;6.72;;
75898;SDS011;64576;50.460;4.866;2023-04-03T08:38:56;12.95;;;6.07;;
75898;SDS011;64576;50.460;4.866;2023-04-03T08:41:35;16.10;;;7.22;;
75898;SDS011;64576;50.460;4.866;2023-04-03T08:44:09;12.50;;;6.00;;
75898;SDS011;64576;50.460;4.866;2023-04-03T08:46:47;12.43;;;5.80;;
75898;SDS011;64576;50.460;4.866;2023-04-03T08:49:33;10.77;;;6.43;;
75898;SDS011;64576;50.460;4.866;2023-04-03T08:52:04;9.77;;;6.50;;
75898;SDS011;64576;50.460;4.866;2023-04-03T08:54:34;10.07;;;6.25;;
75898;SDS011;64576;50.460;4.866;2023-04-03T08:57:13;10.75;;;5.72;;
75898;SDS011;64576;50.460;4.866;2023-04-03T08:59:39;7.35;;;5.18;;
75898;SDS011;64576;50.460;4.866;2023-04-03T09:05:16;9.30;;;5.32;;
75898;SDS011;64576;50.460;4.866;2023-04-03T09:07:47;12.55;;;5.70;;
75898;SDS011;64576;50.460;4.866;2023-04-03T09:10:24;8.20;;;4.72;;
75898;SDS011;64576;50.460;4.866;2023-04-03T09:12:58;8.55;;;5.05;;
75898;SDS011;64576;50.460;4.866;2023-04-03T09:15:28;12.35;;;5.93;;
75898;SDS011;64576;50.460;4.866;2023-04-03T09:26:26;9.75;;;5.63;;
75898;SDS011;64576;50.460;4.866;2023-04-03T09:28:56;11.02;;;5.45;;
75898;SDS011;64576;50.460;4.866;2023-04-03T09:31:26;8.95;;;4.68;;
75898;SDS011;64576;50.460;4.866;2023-04-03T09:34:02;10.93;;;5.43;;
75898;SDS011;64576;50.460;4.866;2023-04-03T09:36:44;9.20;;;4.43;;
75898;SDS011;64576;50.460;4.866;2023-04-03T09:39:16;8.38;;;4.03;;
75898;SDS011;64576;50.460;4.866;2023-04-03T09:44:26;6.43;;;3.70;;
75898;SDS011;64576;50.460;4.866;2023-04-03T09:46:56;9.40;;;4.35;;
75898;SDS011;64576;50.460;4.866;2023-04-03T09:49:22;8.82;;;4.20;;
75898;SDS011;64576;50.460;4.866;2023-04-03T09:51:48;8.88;;;4.25;;
75898;SDS011;64576;50.460;4.866;2023-04-03T09:54:33;8.60;;;3.75;;
75898;SDS011;64576;50.460;4.866;2023-04-03T09:57:06;8.63;;;4.50;;
75898;SDS011;64576;50.460;4.866;2023-04-03T09:59:43;9.80;;;4.50;;
75898;SDS011;64576;50.460;4.866;2023-04-03T10:04:56;9.13;;;5.03;;
75898;SDS011;64576;50.460;4.866;2023-04-03T10:07:35;10.90;;;5.45;;
75898;SDS011;64576;50.460;4.866;2023-04-03T10:10:15;9.55;;;5.03;;
75898;SDS011;64576;50.460;4.866;2023-04-03T10:12:47;10.60;;;5.50;;
75898;SDS011;64576;50.460;4.866;2023-04-03T10:15:14;8.10;;;4.22;;
75898;SDS011;64576;50.460;4.866;2023-04-03T10:20:26;12.32;;;5.07;;
75898;SDS011;64576;50.460;4.866;2023-04-03T10:23:00;10.13;;;4.72;;
75898;SDS011;64576;50.460;4.866;2023-04-03T10:28:40;6.50;;;3.83;;
75898;SDS011;64576;50.460;4.866;2023-04-03T10:34:04;8.00;;;4.40;;
75898;SDS011;64576;50.460;4.866;2023-04-03T10:39:34;11.23;;;5.65;;
75898;SDS011;64576;50.460;4.866;2023-04-03T10:45:03;9.07;;;4.38;;
75898;SDS011;64576;50.460;4.866;2023-04-03T10:47:51;8.27;;;5.03;;
75898;SDS011;64576;50.460;4.866;2023-04-03T10:53:39;7.13;;;4.60;;
75898;SDS011;64576;50.460;4.866;2023-04-03T10:58:52;10.40;;;4.70;;
75898;SDS011;64576;50.460;4.866;2023-04-03T11:01:23;9.10;;;4.22;;
75898;SDS011;64576;50.460;4.866;2023-04-03T11:03:54;9.30;;;4.80;;
75898;SDS011;64576;50.460;4.866;2023-04-03T11:06:23;9.82;;;5.03;;
75898;SDS011;64576;50.460;4.866;2023-04-03T11:11:32;10.38;;;4.70;;
75898;SDS011;64576;50.460;4.866;2023-04-03T11:19:57;9.55;;;5.75;;
75898;SDS011;64576;50.460;4.866;2023-04-03T11:22:29;10.05;;;5.13;;
75898;SDS011;64576;50.460;4.866;2023-04-03T11:27:40;6.30;;;4.95;;
75898;SDS011;64576;50.460;4.866;2023-04-03T11:30:12;9.75;;;5.28;;
75898;SDS011;64576;50.460;4.866;2023-04-03T11:35:23;7.47;;;4.47;;
75898;SDS011;64576;50.460;4.866;2023-04-03T11:37:53;10.38;;;5.28;;
75898;SDS011;64576;50.460;4.866;2023-04-03T11:40:26;8.95;;;4.32;;
75898;SDS011;64576;50.460;4.866;2023-04-03T11:45:34;11.07;;;5.25;;
75898;SDS011;64576;50.460;4.866;2023-04-03T11:48:01;8.38;;;4.22;;
75898;SDS011;64576;50.460;4.866;2023-04-03T11:50:47;8.27;;;4.68;;
75898;SDS011;64576;50.460;4.866;2023-04-03T11:55:42;8.52;;;4.07;;
75898;SDS011;64576;50.460;4.866;2023-04-03T11:58:17;8.70;;;4.53;;
75898;SDS011;64576;50.460;4.866;2023-04-03T12:00:49;7.75;;;3.80;;
75898;SDS011;64576;50.460;4.866;2023-04-03T12:06:58;8.15;;;3.80;;
75898;SDS011;64576;50.460;4.866;2023-04-03T12:09:00;5.93;;;3.25;;
75898;SDS011;64576;50.460;4.866;2023-04-03T12:11:30;4.80;;;2.90;;
75898;SDS011;64576;50.460;4.866;2023-04-03T12:26:46;8.48;;;3.47;;
75898;SDS011;64576;50.460;4.866;2023-04-03T12:31:44;8.98;;;4.18;;
75898;SDS011;64576;50.460;4.866;2023-04-03T12:45:36;9.10;;;3.60;;
75898;SDS011;64576;50.460;4.866;2023-04-03T12:48:08;9.80;;;4.25;;
75898;SDS011;64576;50.460;4.866;2023-04-03T12:50:38;4.85;;;3.60;;
75898;SDS011;64576;50.460;4.866;2023-04-03T12:53:10;7.75;;;4.47;;
75898;SDS011;64576;50.460;4.866;2023-04-03T12:55:36;10.30;;;4.22;;
75898;SDS011;64576;50.460;4.866;2023-04-03T12:58:44;7.05;;;4.10;;
75898;SDS011;64576;50.460;4.866;2023-04-03T13:01:03;8.73;;;4.10;;
75898;SDS011;64576;50.460;4.866;2023-04-03T13:03:53;5.25;;;3.40;;
75898;SDS011;64576;50.460;4.866;2023-04-03T13:14:38;8.07;;;4.28;;
75898;SDS011;64576;50.460;4.866;2023-04-03T13:19:39;6.78;;;3.40;;
75898;SDS011;64576;50.460;4.866;2023-04-03T13:24:58;8.05;;;3.88;;
75898;SDS011;64576;50.460;4.866;2023-04-03T13:27:26;10.25;;;4.40;;
75898;SDS011;64576;50.460;4.866;2023-04-03T13:29:56;11.77;;;4.82;;
75898;SDS011;64576;50.460;4.866;2023-04-03T13:32:24;8.82;;;3.42;;
75898;SDS011;64576;50.460;4.866;2023-04-03T13:34:51;6.43;;;3.22;;
75898;SDS011;64576;50.460;4.866;2023-04-03T13:37:21;6.32;;;3.33;;
75898;SDS011;64576;50.460;4.866;2023-04-03T13:40:04;7.18;;;3.33;;
75898;SDS011;64576;50.460;4.866;2023-04-03T13:42:37;6.72;;;3.72;;
75898;SDS011;64576;50.460;4.866;2023-04-03T13:45:09;6.55;;;3.55;;
75898;SDS011;64576;50.460;4.866;2023-04-03T13:47:42;8.40;;;3.20;;
75898;SDS011;64576;50.460;4.866;2023-04-03T13:55:16;7.70;;;5.03;;
75898;SDS011;64576;50.460;4.866;2023-04-03T13:57:53;11.98;;;3.42;;
75898;SDS011;64576;50.460;4.866;2023-04-03T14:00:47;6.05;;;2.97;;
75898;SDS011;64576;50.460;4.866;2023-04-03T14:03:41;7.10;;;4.05;;
75898;SDS011;64576;50.460;4.866;2023-04-03T14:06:18;10.35;;;3.63;;
75898;SDS011;64576;50.460;4.866;2023-04-03T14:08:44;7.32;;;2.75;;
75898;SDS011;64576;50.460;4.866;2023-04-03T14:11:14;6.50;;;3.10;;
75898;SDS011;64576;50.460;4.866;2023-04-03T14:13:43;7.20;;;3.13;;
75898;SDS011;64576;50.460;4.866;2023-04-03T14:16:12;10.20;;;3.25;;
75898;SDS011;64576;50.460;4.866;2023-04-03T14:18:39;6.55;;;3.15;;
75898;SDS011;64576;50.460;4.866;2023-04-03T14:21:05;7.40;;;2.75;;
75898;SDS011;64576;50.460;4.866;2023-04-03T14:23:31;8.32;;;3.05;;
75898;SDS011;64576;50.460;4.866;2023-04-03T14:25:58;6.20;;;2.95;;
75898;SDS011;64576;50.460;4.866;2023-04-03T14:28:25;8.55;;;3.28;;
75898;SDS011;64576;50.460;4.866;2023-04-03T14:30:50;6.65;;;2.80;;
75898;SDS011;64576;50.460;4.866;2023-04-03T14:33:18;6.78;;;3.65;;
75898;SDS011;64576;50.460;4.866;2023-04-03T14:35:45;7.75;;;2.88;;
75898;SDS011;64576;50.460;4.866;2023-04-03T14:38:13;5.85;;;3.10;;
75898;SDS011;64576;50.460;4.866;2023-04-03T14:40:47;9.18;;;3.15;;
75898;SDS011;64576;50.460;4.866;2023-04-03T14:43:13;6.53;;;2.70;;
75898;SDS011;64576;50.460;4.866;2023-04-03T14:45:38;7.75;;;3.25;;
75898;SDS011;64576;50.460;4.866;2023-04-03T14:48:04;6.40;;;2.45;;
75898;SDS011;64576;50.460;4.866;2023-04-03T14:50:31;5.82;;;2.63;;
75898;SDS011;64576;50.460;4.866;2023-04-03T14:52:57;5.38;;;2.72;;
75898;SDS011;64576;50.460;4.866;2023-04-03T14:55:24;7.05;;;3.88;;
75898;SDS011;64576;50.460;4.866;2023-04-03T14:57:50;4.90;;;2.40;;
75898;SDS011;64576;50.460;4.866;2023-04-03T15:00:17;10.13;;;2.78;;
75898;SDS011;64576;50.460;4.866;2023-04-03T15:02:44;6.28;;;2.95;;
75898;SDS011;64576;50.460;4.866;2023-04-03T15:05:10;6.78;;;2.80;;
75898;SDS011;64576;50.460;4.866;2023-04-03T15:07:43;10.43;;;3.00;;
75898;SDS011;64576;50.460;4.866;2023-04-03T15:12:41;7.53;;;3.20;;
75898;SDS011;64576;50.460;4.866;2023-04-03T15:15:07;8.05;;;2.72;;
75898;SDS011;64576;50.460;4.866;2023-04-03T15:17:33;6.80;;;3.13;;
75898;SDS011;64576;50.460;4.866;2023-04-03T15:19:59;7.07;;;2.33;;
75898;SDS011;64576;50.460;4.866;2023-04-03T15:22:25;5.75;;;2.47;;
75898;SDS011;64576;50.460;4.866;2023-04-03T15:24:50;8.68;;;2.40;;
75898;SDS011;64576;50.460;4.866;2023-04-03T15:27:16;4.47;;;2.10;;
75898;SDS011;64576;50.460;4.866;2023-04-03T15:29:41;5.20;;;2.30;;
75898;SDS011;64576;50.460;4.866;2023-04-03T15:32:08;5.47;;;2.45;;
75898;SDS011;64576;50.460;4.866;2023-04-03T15:34:34;12.20;;;2.63;;
75898;SDS011;64576;50.460;4.866;2023-04-03T15:37:00;7.65;;;3.03;;
75898;SDS011;64576;50.460;4.866;2023-04-03T15:39:26;5.78;;;2.65;;
75898;SDS011;64576;50.460;4.866;2023-04-03T15:41:52;8.00;;;2.70;;
75898;SDS011;64576;50.460;4.866;2023-04-03T15:44:19;4.97;;;2.40;;
75898;SDS011;64576;50.460;4.866;2023-04-03T15:46:48;4.25;;;2.25;;
75898;SDS011;64576;50.460;4.866;2023-04-03T15:49:16;6.60;;;2.47;;
75898;SDS011;64576;50.460;4.866;2023-04-03T15:51:43;5.07;;;2.15;;
75898;SDS011;64576;50.460;4.866;2023-04-03T15:54:08;5.07;;;2.08;;
75898;SDS011;64576;50.460;4.866;2023-04-03T15:56:34;5.03;;;2.17;;
75898;SDS011;64576;50.460;4.866;2023-04-03T15:58:59;6.13;;;2.40;;
75898;SDS011;64576;50.460;4.866;2023-04-03T16:01:25;5.18;;;3.00;;
75898;SDS011;64576;50.460;4.866;2023-04-03T16:03:50;4.75;;;2.25;;
75898;SDS011;64576;50.460;4.866;2023-04-03T16:06:16;5.10;;;2.35;;
75898;SDS011;64576;50.460;4.866;2023-04-03T16:08:43;10.95;;;3.80;;
75898;SDS011;64576;50.460;4.866;2023-04-03T16:11:09;7.25;;;2.00;;
75898;SDS011;64576;50.460;4.866;2023-04-03T16:13:34;5.93;;;2.35;;
75898;SDS011;64576;50.460;4.866;2023-04-03T16:16:00;4.97;;;2.47;;
75898;SDS011;64576;50.460;4.866;2023-04-03T16:18:26;6.32;;;2.17;;
75898;SDS011;64576;50.460;4.866;2023-04-03T16:20:53;8.07;;;2.55;;
75898;SDS011;64576;50.460;4.866;2023-04-03T16:23:18;4.95;;;1.95;;
75898;SDS011;64576;50.460;4.866;2023-04-03T16:25:44;9.35;;;2.60;;
75898;SDS011;64576;50.460;4.866;2023-04-03T16:28:11;3.90;;;2.08;;
75898;SDS011;64576;50.460;4.866;2023-04-03T16:30:38;6.22;;;1.95;;
75898;SDS011;64576;50.460;4.866;2023-04-03T16:33:08;6.03;;;2.65;;
75898;SDS011;64576;50.460;4.866;2023-04-03T16:35:34;7.18;;;2.47;;